Time;durP1;ratioP1;P1;durP2;ratioP2;P2;SDS_P1;SDS_P2;PMS_P1;PMS_P2;Temp;Humidity;BMP_temperature;BMP_pressure;BME280_temperature;BME280_humidity;BME280_pressure;Samples;Min_cycle;Max_cycle;Signal;HPM_P1;HPM_P2
2023/09/18 00:02:07;;;;;;;6.00;3.30;;;;;;;25.25;49.65;96867.03;5032642;28;20195;-69
2023/09/18 00:04:33;;;;;;;3.07;2.77;;;;;;;25.23;50.07;96868.34;5043601;28;20622;-69
2023/09/18 00:06:59;;;;;;;9.70;3.27;;;;;;;25.21;49.96;96871.28;5039708;28;20612;-70
2023/09/18 00:09:25;;;;;;;4.50;3.97;;;;;;;25.21;49.82;96871.28;5036708;28;20450;-69
2023/09/18 00:11:50;;;;;;;4.40;4.00;;;;;;;25.20;49.79;96869.69;5035505;28;20239;-70
2023/09/18 00:14:15;;;;;;;11.43;3.90;;;;;;;25.21;49.74;96871.28;4986536;28;20220;-70
2023/09/18 00:16:41;;;;;;;5.03;3.17;;;;;;;25.19;50.08;96865.38;5036020;28;20225;-69
2023/09/18 00:19:07;;;;;;;5.50;3.67;;;;;;;25.13;49.79;96856.47;5015984;28;20219;-69
2023/09/18 00:21:34;;;;;;;5.03;4.33;;;;;;;25.08;50.09;96859.09;5031755;28;20590;-68
2023/09/18 00:23:59;;;;;;;3.33;3.00;;;;;;;25.08;50.51;96852.91;5034586;28;20464;-68
2023/09/18 00:26:25;;;;;;;5.10;3.40;;;;;;;24.99;50.27;96837.31;5035894;28;20815;-68
2023/09/18 00:28:50;;;;;;;8.87;3.97;;;;;;;24.93;50.59;96837.53;5033427;28;20183;-69
2023/09/18 00:31:16;;;;;;;8.27;4.97;;;;;;;24.92;50.98;96835.91;4995215;28;20216;-70
2023/09/18 00:33:41;;;;;;;9.50;3.70;;;;;;;24.86;50.77;96837.72;5032084;28;20266;-69
2023/09/18 00:36:07;;;;;;;5.17;3.90;;;;;;;24.83;51.27;96822.97;5013124;28;20203;-70
2023/09/18 00:38:32;;;;;;;5.20;3.70;;;;;;;24.83;50.70;96828.34;5033346;28;20278;-70
2023/09/18 00:40:57;;;;;;;6.70;3.50;;;;;;;24.87;50.71;96831.31;5034098;28;20219;-70
2023/09/18 00:43:23;;;;;;;4.90;3.40;;;;;;;24.87;51.04;96828.63;5019221;28;21533;-70
2023/09/18 00:45:49;;;;;;;4.03;3.40;;;;;;;24.82;51.35;96820.56;5040319;28;20187;-70
2023/09/18 00:48:15;;;;;;;3.37;3.07;;;;;;;24.83;51.08;96825.66;5034085;28;20751;-70
2023/09/18 00:50:41;;;;;;;11.60;4.13;;;;;;;24.79;51.28;96827.22;5018744;28;20271;-70
2023/09/18 00:53:08;;;;;;;6.07;5.20;;;;;;;24.80;51.53;96820.78;5002712;28;20523;-69
2023/09/18 00:55:33;;;;;;;5.67;4.47;;;;;;;24.82;51.51;96817.88;5032017;28;20341;-70
2023/09/18 00:57:59;;;;;;;6.27;4.20;;;;;;;24.85;51.05;96814.66;5011304;28;20521;-69
2023/09/18 01:00:25;;;;;;;8.70;3.90;;;;;;;24.87;51.10;96812.53;5028815;28;20311;-71
2023/09/18 01:02:50;;;;;;;5.23;3.73;;;;;;;24.88;51.13;96816.84;5037269;28;20226;-72
2023/09/18 01:05:17;;;;;;;4.80;4.00;;;;;;;24.90;51.60;96814.72;5034649;28;20669;-71
2023/09/18 01:07:42;;;;;;;3.80;3.37;;;;;;;24.88;51.21;96824.88;5040597;28;20182;-71
2023/09/18 01:10:09;;;;;;;4.70;3.67;;;;;;;24.89;51.28;96810.44;5030914;28;20830;-71
2023/09/18 01:12:48;;;;;;;4.90;4.13;;;;;;;24.94;51.16;96804.31;5032082;28;20202;-71
2023/09/18 01:15:25;;;;;;;7.87;4.80;;;;;;;24.97;51.29;96812.63;5013069;28;20513;-70
2023/09/18 01:17:51;;;;;;;5.50;3.50;;;;;;;25.00;50.74;96820.16;4978481;28;20465;-70
2023/09/18 01:20:16;;;;;;;3.80;3.00;;;;;;;25.04;50.95;96822.34;5009624;28;20469;-70
2023/09/18 01:22:43;;;;;;;5.00;3.17;;;;;;;25.07;50.64;96829.88;5033513;28;20206;-70
2023/09/18 01:25:08;;;;;;;4.23;3.33;;;;;;;25.08;50.40;96812.72;5030313;28;20191;-70
2023/09/18 01:27:34;;;;;;;3.77;3.40;;;;;;;25.12;50.22;96817.34;5014721;28;21090;-70
2023/09/18 01:29:59;;;;;;;7.00;3.40;;;;;;;25.18;50.05;96812.81;5025283;28;20206;-70
2023/09/18 01:32:28;;;;;;;3.53;3.03;;;;;;;25.17;50.06;96807.69;5039220;28;20211;-70
2023/09/18 01:34:54;;;;;;;5.60;2.90;;;;;;;25.20;49.93;96810.69;4998182;28;20192;-69
2023/09/18 01:37:21;;;;;;;4.40;3.00;;;;;;;25.25;49.78;96826.81;5021916;28;20430;-71
2023/09/18 01:39:48;;;;;;;4.37;3.10;;;;;;;25.23;49.94;96812.84;5027043;28;20433;-70
2023/09/18 01:42:14;;;;;;;6.63;3.30;;;;;;;25.21;49.91;96841.78;5019970;28;20426;-70
2023/09/18 01:44:40;;;;;;;2.70;2.50;;;;;;;25.22;50.01;96904.28;5002544;28;20424;-70
2023/09/18 01:47:10;;;;;;;4.87;3.17;;;;;;;25.21;49.80;96884.69;4976912;28;20559;-70
2023/09/18 01:49:37;;;;;;;2.90;2.60;;;;;;;25.16;48.74;96881.97;5020707;28;20421;-71
2023/09/18 01:52:04;;;;;;;6.80;2.77;;;;;;;25.25;47.63;96876.97;5026248;28;21012;-70
2023/09/18 01:54:30;;;;;;;3.83;2.40;;;;;;;25.33;47.25;96870.31;5013316;28;20436;-70
2023/09/18 01:56:56;;;;;;;6.40;2.43;;;;;;;25.44;47.14;96858.63;4997476;28;20434;-70
2023/09/18 01:59:22;;;;;;;7.40;2.40;;;;;;;25.52;47.88;96852.00;5015920;28;20542;-70
2023/09/18 02:01:48;;;;;;;5.80;2.40;;;;;;;25.40;49.61;96836.03;5037794;28;20265;-70
2023/09/18 02:04:14;;;;;;;8.30;2.20;;;;;;;25.45;49.66;96806.63;5007835;28;21091;-69
2023/09/18 02:06:40;;;;;;;10.20;2.57;;;;;;;25.42;50.37;96770.38;5039388;28;20445;-70
2023/09/18 02:09:07;;;;;;;8.73;3.30;;;;;;;25.44;49.98;96736.06;5044703;28;20191;-71
2023/09/18 02:11:34;;;;;;;7.43;3.03;;;;;;;25.48;51.16;96722.13;5016838;28;20508;-69
2023/09/18 02:14:00;;;;;;;6.73;2.63;;;;;;;25.44;52.00;96727.22;5037128;28;20468;-69
2023/09/18 02:16:26;;;;;;;12.33;2.90;;;;;;;25.30;53.11;96748.28;5035044;28;20476;-69
2023/09/18 02:18:54;;;;;;;9.03;3.10;;;;;;;25.27;54.02;96746.94;5012605;28;20884;-69
2023/09/18 02:21:20;;;;;;;7.83;3.00;;;;;;;25.08;55.63;96756.44;5013395;28;20611;-69
2023/09/18 02:23:49;;;;;;;6.10;2.63;;;;;;;25.08;55.57;96759.09;5014842;28;20450;-69
2023/09/18 02:26:14;;;;;;;7.33;2.60;;;;;;;25.05;54.73;96751.59;5038252;28;20245;-69
2023/09/18 02:28:40;;;;;;;7.97;1.97;;;;;;;25.05;53.75;96748.91;5032168;28;20525;-69
2023/09/18 02:31:05;;;;;;;8.60;2.60;;;;;;;25.03;53.61;96753.72;5040840;28;20298;-70
2023/09/18 02:33:30;;;;;;;9.00;2.70;;;;;;;25.02;53.25;96752.91;5020176;28;20764;-69
2023/09/18 02:35:57;;;;;;;11.40;2.60;;;;;;;25.02;53.18;96760.16;5013115;28;20219;-69
2023/09/18 02:38:22;;;;;;;13.27;2.57;;;;;;;24.99;52.04;96773.00;5040051;28;20858;-70
2023/09/18 02:40:48;;;;;;;14.10;2.70;;;;;;;24.93;50.82;96774.03;5021869;28;20514;-69
2023/09/18 02:43:13;;;;;;;18.70;3.20;;;;;;;24.82;49.88;96778.47;5034513;28;20219;-71
2023/09/18 02:45:40;;;;;;;16.87;2.80;;;;;;;24.89;49.78;96783.63;5041838;28;20681;-70
2023/09/18 02:48:05;;;;;;;16.07;2.20;;;;;;;24.95;50.00;96789.84;5018559;28;20188;-70
2023/09/18 02:50:31;;;;;;;10.33;2.23;;;;;;;24.98;50.23;96786.66;5039235;28;20461;-69
2023/09/18 02:52:56;;;;;;;11.70;3.03;;;;;;;25.03;50.23;96777.84;5017958;28;20579;-70
2023/09/18 02:55:22;;;;;;;18.47;3.03;;;;;;;24.98;50.50;96776.72;5042625;28;20675;-70
2023/09/18 02:57:47;;;;;;;7.23;2.87;;;;;;;24.95;50.77;96777.22;5019945;28;20736;-71
2023/09/18 03:00:13;;;;;;;9.87;3.03;;;;;;;24.94;50.42;96778.31;5034402;28;20218;-70
2023/09/18 03:02:38;;;;;;;21.27;3.47;;;;;;;24.85;50.82;96777.16;5022806;28;20215;-70
2023/09/18 03:05:04;;;;;;;17.80;2.50;;;;;;;24.77;51.09;96772.28;5037773;28;20249;-70
2023/09/18 03:07:29;;;;;;;10.33;2.77;;;;;;;24.78;51.01;96765.84;5039761;28;20187;-70
2023/09/18 03:09:55;;;;;;;17.97;2.97;;;;;;;24.83;51.19;96763.19;5043250;28;20275;-70
2023/09/18 03:12:22;;;;;;;9.43;2.63;;;;;;;24.91;50.67;96760.06;5028772;28;20195;-71
2023/09/18 03:14:47;;;;;;;5.90;2.37;;;;;;;24.90;50.61;96758.47;5045259;28;20206;-70
2023/09/18 03:17:13;;;;;;;17.13;3.00;;;;;;;24.93;50.46;96747.22;5030358;28;20439;-70
2023/09/18 03:19:38;;;;;;;6.10;2.53;;;;;;;24.96;51.62;96762.78;5040140;28;20285;-70
2023/09/18 03:22:04;;;;;;;8.07;2.70;;;;;;;24.95;52.40;96760.38;5031426;28;20321;-69
2023/09/18 03:24:29;;;;;;;11.47;2.17;;;;;;;24.96;52.89;96767.34;5041351;28;20187;-69
2023/09/18 03:26:55;;;;;;;14.57;2.73;;;;;;;24.93;52.75;96790.09;5032022;28;20215;-70
2023/09/18 03:29:20;;;;;;;10.00;2.40;;;;;;;24.84;53.26;96783.56;5043735;28;20707;-69
2023/09/18 03:31:46;;;;;;;13.00;2.70;;;;;;;24.74;54.68;96781.63;5028253;28;20218;-69
2023/09/18 03:34:11;;;;;;;8.30;2.90;;;;;;;24.62;55.62;96795.13;5037548;28;20217;-70
2023/09/18 03:36:38;;;;;;;9.30;2.87;;;;;;;24.43;55.97;96796.56;5036904;28;20333;-69
2023/09/18 03:39:04;;;;;;;11.63;2.50;;;;;;;24.45;56.05;96808.63;5030800;28;20204;-70
2023/09/18 03:41:33;;;;;;;8.23;3.17;;;;;;;24.44;56.01;96814.25;5035440;28;20442;-70
2023/09/18 03:44:00;;;;;;;18.63;2.70;;;;;;;24.46;56.62;96844.25;5034069;28;20454;-70
2023/09/18 03:46:25;;;;;;;10.10;3.00;;;;;;;24.36;57.03;96855.66;5018702;28;20461;-70
2023/09/18 03:48:51;;;;;;;10.47;2.80;;;;;;;24.39;57.11;96877.38;5012769;28;20450;-70
2023/09/18 03:51:18;;;;;;;13.33;2.70;;;;;;;24.33;57.17;96886.41;5038264;28;20208;-69
2023/09/18 03:53:44;;;;;;;18.87;2.40;;;;;;;24.28;57.25;96901.59;5023684;28;20739;-70
2023/09/18 03:56:09;;;;;;;6.23;2.70;;;;;;;24.26;55.89;96904.53;4997559;28;20439;-69
2023/09/18 03:58:35;;;;;;;11.53;2.90;;;;;;;24.24;55.14;96901.28;5028876;28;20625;-70
2023/09/18 04:01:00;;;;;;;9.67;2.80;;;;;;;24.29;54.41;96909.41;5028464;28;20249;-70
2023/09/18 04:03:26;;;;;;;9.90;2.83;;;;;;;24.31;53.70;96901.94;5007594;28;20742;-69
2023/09/18 04:05:51;;;;;;;10.13;2.30;;;;;;;24.34;53.97;96892.59;5032314;28;20198;-70
2023/09/18 04:08:17;;;;;;;11.40;3.17;;;;;;;24.43;53.89;96887.59;5039824;28;20183;-70
2023/09/18 04:10:43;;;;;;;8.27;2.60;;;;;;;24.48;54.60;96884.97;5024393;28;20862;-70
2023/09/18 04:13:09;;;;;;;8.93;2.50;;;;;;;24.43;53.19;96866.19;5033683;28;20781;-70
2023/09/18 04:15:37;;;;;;;14.37;2.67;;;;;;;24.41;53.39;96868.28;5037078;28;20427;-70
2023/09/18 04:18:06;;;;;;;10.93;2.43;;;;;;;24.49;52.81;96854.47;5036167;28;20191;-70
2023/09/18 04:20:31;;;;;;;10.87;3.17;;;;;;;24.54;53.11;96844.59;5009588;28;20552;-69
2023/09/18 04:23:19;;;;;;;8.37;2.63;;;;;;;24.57;53.32;96834.47;5028142;28;20454;-70
2023/09/18 04:25:45;;;;;;;10.93;2.83;;;;;;;24.62;53.89;96831.84;5034990;28;20219;-70
2023/09/18 04:28:12;;;;;;;10.23;3.20;;;;;;;24.58;54.51;96814.66;5041288;28;20464;-71
2023/09/18 04:30:37;;;;;;;6.70;2.50;;;;;;;24.50;54.64;96805.19;5038631;28;20496;-70
2023/09/18 04:33:03;;;;;;;9.53;2.80;;;;;;;24.48;55.55;96791.25;5026738;28;20498;-71
2023/09/18 04:35:31;;;;;;;10.27;2.77;;;;;;;24.46;55.96;96764.72;5026815;28;20222;-70
2023/09/18 04:37:59;;;;;;;11.53;3.10;;;;;;;24.41;56.30;96759.31;5028746;28;20186;-70
2023/09/18 04:40:24;;;;;;;4.50;2.40;;;;;;;24.39;56.87;96769.47;5018181;28;21037;-70
2023/09/18 04:42:50;;;;;;;14.43;3.07;;;;;;;24.39;56.58;96766.78;5028506;28;20492;-70
2023/09/18 04:45:18;;;;;;;9.93;3.07;;;;;;;24.36;56.71;96760.06;5033861;28;20226;-70
2023/09/18 04:47:44;;;;;;;14.63;3.50;;;;;;;24.32;56.23;96761.63;5008558;28;20261;-70
2023/09/18 04:50:10;;;;;;;12.70;3.20;;;;;;;24.30;56.96;96771.81;5027452;28;20438;-70
2023/09/18 04:52:36;;;;;;;5.97;2.67;;;;;;;24.25;57.07;96784.31;5025249;28;20214;-69
2023/09/18 04:55:01;;;;;;;10.53;2.90;;;;;;;24.12;57.45;96786.31;5031508;28;20206;-69
2023/09/18 04:57:26;;;;;;;10.97;3.47;;;;;;;24.11;57.60;96794.59;5021740;28;20490;-70
2023/09/18 04:59:52;;;;;;;10.93;2.97;;;;;;;24.11;57.11;96800.75;5030780;28;20711;-70
2023/09/18 05:02:17;;;;;;;8.97;3.37;;;;;;;24.15;57.46;96804.53;5029194;28;20279;-71
2023/09/18 05:04:43;;;;;;;7.20;3.00;;;;;;;24.14;57.78;96794.09;5009217;28;20214;-69
2023/09/18 05:07:08;;;;;;;5.97;2.43;;;;;;;24.15;57.55;96791.16;5036690;28;20198;-70
2023/09/18 05:09:34;;;;;;;11.93;2.70;;;;;;;24.14;58.03;96791.41;5022759;28;20226;-70
2023/09/18 05:12:00;;;;;;;12.03;2.87;;;;;;;24.17;57.94;96785.56;5038733;28;20219;-70
2023/09/18 05:14:25;;;;;;;10.27;2.50;;;;;;;23.96;56.76;96785.31;5038981;28;20514;-70
2023/09/18 05:16:51;;;;;;;9.87;3.10;;;;;;;24.03;56.02;96788.63;5033500;28;20254;-69
2023/09/18 05:19:16;;;;;;;18.00;3.10;;;;;;;23.98;55.82;96803.81;4993995;28;20250;-69
2023/09/18 05:21:43;;;;;;;7.17;2.80;;;;;;;23.79;56.38;96825.47;5026528;28;20203;-69
2023/09/18 05:24:08;;;;;;;16.03;3.00;;;;;;;23.76;56.46;96840.16;5038693;28;20210;-70
2023/09/18 05:26:34;;;;;;;13.27;3.07;;;;;;;23.87;56.34;96838.44;5037058;28;20487;-71
2023/09/18 05:28:59;;;;;;;10.33;2.77;;;;;;;23.90;56.44;96805.81;5034440;28;20195;-70
2023/09/18 05:31:25;;;;;;;12.57;3.37;;;;;;;23.93;56.22;96805.31;5017866;28;20243;-69
2023/09/18 05:33:50;;;;;;;12.93;2.70;;;;;;;23.88;56.41;96799.09;5029716;28;20294;-69
2023/09/18 05:36:16;;;;;;;9.37;3.00;;;;;;;23.87;56.63;96808.19;5025844;28;20188;-70
2023/09/18 05:38:43;;;;;;;12.30;3.07;;;;;;;23.86;56.65;96825.28;5007893;28;20188;-70
2023/09/18 05:41:09;;;;;;;12.27;2.73;;;;;;;23.86;56.27;96822.59;5038842;28;20575;-70
2023/09/18 05:43:35;;;;;;;13.40;2.77;;;;;;;23.83;56.39;96825.78;5027080;28;20446;-70
2023/09/18 05:46:01;;;;;;;8.27;2.80;;;;;;;23.81;56.37;96827.91;5040964;28;20442;-70
2023/09/18 05:48:27;;;;;;;6.20;2.70;;;;;;;23.86;56.30;96825.28;5028447;28;20862;-70
2023/09/18 05:50:54;;;;;;;12.30;2.90;;;;;;;23.86;56.21;96826.09;5035292;28;20470;-69
2023/09/18 05:53:20;;;;;;;11.43;2.57;;;;;;;23.76;56.51;96826.78;5036895;28;20294;-70
2023/09/18 05:55:45;;;;;;;10.30;3.13;;;;;;;23.80;56.38;96816.38;5023974;28;20442;-70
2023/09/18 05:58:10;;;;;;;4.87;3.00;;;;;;;23.76;56.68;96816.06;5028596;28;20203;-71
2023/09/18 06:00:36;;;;;;;14.60;3.17;;;;;;;23.77;56.74;96807.00;5034238;28;20221;-70
2023/09/18 06:03:02;;;;;;;14.57;3.07;;;;;;;23.78;57.04;96805.13;5025277;28;20293;-70
2023/09/18 06:05:30;;;;;;;5.70;2.70;;;;;;;23.78;56.90;96810.47;5034535;28;20596;-70
2023/09/18 06:07:56;;;;;;;11.77;2.93;;;;;;;23.74;56.94;96796.78;5017379;28;21102;-70
2023/09/18 06:10:21;;;;;;;8.97;3.13;;;;;;;23.78;57.01;96802.44;5010527;28;20494;-70
2023/09/18 06:12:47;;;;;;;6.70;2.67;;;;;;;23.73;56.93;96791.69;5013489;28;20313;-70
2023/09/18 06:15:12;;;;;;;15.40;2.60;;;;;;;23.67;57.19;96790.81;5031363;28;20322;-70
2023/09/18 06:17:43;;;;;;;7.20;3.10;;;;;;;23.68;57.27;96795.09;5042519;28;20190;-70
2023/09/18 06:20:10;;;;;;;8.17;2.97;;;;;;;23.71;57.23;96799.94;5024064;28;20203;-71
2023/09/18 06:22:39;;;;;;;8.10;2.67;;;;;;;23.69;57.62;96804.72;5037901;28;20461;-70
2023/09/18 06:25:06;;;;;;;13.20;3.00;;;;;;;23.73;57.41;96810.41;5028122;28;20429;-70
2023/09/18 06:27:35;;;;;;;17.00;3.13;;;;;;;23.75;57.41;96798.41;5045936;28;20925;-70
2023/09/18 06:30:00;;;;;;;8.63;4.20;;;;;;;23.81;57.29;96806.50;5040023;28;20968;-69
2023/09/18 06:32:26;;;;;;;12.63;3.97;;;;;;;23.84;57.59;96806.00;5026696;28;20450;-70
2023/09/18 06:34:51;;;;;;;6.00;3.10;;;;;;;23.88;57.59;96807.91;5039821;28;20282;-70
2023/09/18 06:37:18;;;;;;;13.43;4.90;;;;;;;23.96;57.34;96793.34;5015076;28;20204;-70
2023/09/18 06:39:43;;;;;;;13.63;2.77;;;;;;;23.98;57.23;96819.88;5045659;28;20218;-70
2023/09/18 06:42:09;;;;;;;6.43;2.97;;;;;;;23.95;57.76;96821.13;5034497;28;20431;-70
2023/09/18 06:44:34;;;;;;;5.10;1.93;;;;;;;23.90;58.08;96826.41;5045474;28;20233;-72
2023/09/18 06:47:00;;;;;;;14.07;2.60;;;;;;;23.94;57.66;96819.53;5033262;28;20195;-71
2023/09/18 06:49:25;;;;;;;7.73;2.43;;;;;;;23.90;57.82;96829.88;5037776;28;20652;-71
2023/09/18 06:51:51;;;;;;;7.90;2.30;;;;;;;23.81;58.18;96833.25;5035956;28;20242;-71
2023/09/18 06:54:16;;;;;;;6.43;1.83;;;;;;;23.90;57.98;96837.91;5034975;28;20219;-72
2023/09/18 06:56:44;;;;;;;7.67;2.30;;;;;;;23.96;57.87;96838.81;5035838;28;20192;-70
2023/09/18 06:59:10;;;;;;;8.10;2.20;;;;;;;23.95;58.01;96836.38;5031384;28;20217;-71
2023/09/18 07:01:35;;;;;;;6.67;2.30;;;;;;;23.84;58.22;96832.75;5037893;28;20488;-72
2023/09/18 07:04:01;;;;;;;6.77;2.10;;;;;;;23.81;57.85;96828.69;5043528;28;20545;-71
2023/09/18 07:06:26;;;;;;;9.17;1.80;;;;;;;23.85;57.19;96845.06;5038189;28;20274;-71
2023/09/18 07:08:53;;;;;;;5.97;1.87;;;;;;;23.85;56.95;96837.88;5030377;28;20278;-70
2023/09/18 07:11:18;;;;;;;6.70;1.90;;;;;;;23.82;56.62;96834.88;5038862;28;20221;-71
2023/09/18 07:13:44;;;;;;;10.93;2.87;;;;;;;23.89;56.41;96830.94;5031907;28;20459;-70
2023/09/18 07:16:10;;;;;;;6.17;2.27;;;;;;;23.94;56.44;96822.19;5031167;28;20191;-71
2023/09/18 07:18:35;;;;;;;9.37;1.80;;;;;;;23.89;55.83;96808.75;5011765;28;20194;-70
2023/09/18 07:21:01;;;;;;;3.27;1.47;;;;;;;23.96;55.78;96809.38;5031919;28;20431;-70
2023/09/18 07:23:26;;;;;;;3.40;1.63;;;;;;;24.05;55.51;96815.94;5042786;28;20699;-72
2023/09/18 07:25:52;;;;;;;4.40;1.60;;;;;;;24.02;55.02;96808.41;5029058;28;20221;-70
2023/09/18 07:28:19;;;;;;;4.10;1.50;;;;;;;24.10;54.57;96812.53;5016599;28;20928;-70
2023/09/18 07:30:44;;;;;;;5.27;1.80;;;;;;;24.06;54.34;96822.09;5032184;28;20299;-71
2023/09/18 07:33:10;;;;;;;4.70;1.80;;;;;;;23.99;53.85;96830.31;5043749;28;20544;-71
2023/09/18 07:35:37;;;;;;;7.50;2.17;;;;;;;24.10;54.00;96835.78;5013281;28;20540;-71
2023/09/18 07:38:03;;;;;;;4.93;1.60;;;;;;;24.06;54.09;96848.84;5031434;28;20509;-72
2023/09/18 07:40:28;;;;;;;4.13;1.90;;;;;;;24.08;53.74;96863.59;5016673;28;20522;-71
2023/09/18 07:42:54;;;;;;;2.50;1.37;;;;;;;24.16;54.03;96861.56;5031596;28;20246;-71
2023/09/18 07:45:19;;;;;;;3.70;1.37;;;;;;;24.14;54.11;96882.41;5017746;28;20198;-72
2023/09/18 07:47:45;;;;;;;5.73;1.57;;;;;;;23.92;54.43;96883.97;5030662;28;20267;-70
2023/09/18 07:50:10;;;;;;;4.83;1.63;;;;;;;24.13;53.92;96884.28;5015133;28;20200;-71
2023/09/18 07:52:36;;;;;;;4.03;1.47;;;;;;;24.18;53.71;96889.69;5026349;28;20219;-71
2023/09/18 07:55:02;;;;;;;5.03;2.20;;;;;;;24.27;53.80;96876.69;5021935;28;20253;-71
2023/09/18 07:57:32;;;;;;;5.67;1.40;;;;;;;24.33;53.63;96867.66;5029879;28;20622;-70
2023/09/18 07:59:58;;;;;;;14.20;2.00;;;;;;;24.32;53.70;96878.63;5037646;28;20450;-72
2023/09/18 08:02:24;;;;;;;4.50;1.47;;;;;;;24.37;53.12;96873.34;5043798;28;20488;-71
2023/09/18 08:04:50;;;;;;;2.77;1.80;;;;;;;24.39;53.49;96880.06;5036390;28;20458;-70
2023/09/18 08:07:15;;;;;;;2.23;1.47;;;;;;;24.34;53.13;96889.91;5027221;28;20198;-71
2023/09/18 08:09:41;;;;;;;3.47;1.40;;;;;;;24.26;53.39;96880.44;5028868;28;20442;-70
2023/09/18 08:12:08;;;;;;;2.13;1.40;;;;;;;24.32;52.81;96889.34;5030339;28;20218;-71
2023/09/18 08:14:36;;;;;;;3.07;1.83;;;;;;;24.38;52.99;96897.19;5035275;28;20578;-71
2023/09/18 08:17:02;;;;;;;2.87;1.53;;;;;;;24.39;52.76;96896.13;5029505;28;20445;-71
2023/09/18 08:19:28;;;;;;;1.60;1.20;;;;;;;24.37;53.00;96914.31;5036918;28;20441;-72
2023/09/18 08:21:54;;;;;;;3.83;1.47;;;;;;;24.42;52.76;96920.78;5024224;28;20509;-71
2023/09/18 08:24:20;;;;;;;5.83;1.83;;;;;;;24.28;53.11;96936.41;5037183;28;20219;-72
2023/09/18 08:26:46;;;;;;;3.40;1.30;;;;;;;24.13;53.41;96947.72;5014675;28;20442;-71
2023/09/18 08:29:12;;;;;;;5.73;1.83;;;;;;;23.81;54.22;96953.66;5031094;28;20434;-71
2023/09/18 08:31:37;;;;;;;3.07;1.93;;;;;;;23.97;54.17;96965.41;5041156;28;20645;-71
2023/09/18 08:34:02;;;;;;;2.70;1.10;;;;;;;23.96;53.90;96961.91;5042151;28;20238;-70
2023/09/18 08:36:30;;;;;;;3.00;1.37;;;;;;;23.91;54.55;96954.59;5028885;28;20230;-71
2023/09/18 08:38:56;;;;;;;2.30;1.07;;;;;;;23.82;54.98;96964.09;5028332;28;20611;-70
2023/09/18 08:41:25;;;;;;;3.20;1.00;;;;;;;23.78;55.38;96963.78;5035501;28;20485;-70
2023/09/18 08:43:51;;;;;;;6.40;1.33;;;;;;;23.86;55.16;96956.38;5034304;28;20312;-71
2023/09/18 08:46:17;;;;;;;6.30;1.20;;;;;;;23.70;55.64;96966.03;5040362;28;20975;-71
2023/09/18 08:48:43;;;;;;;3.67;1.20;;;;;;;23.66;56.25;96962.22;5031613;28;20509;-72
2023/09/18 08:51:10;;;;;;;2.37;1.20;;;;;;;23.54;56.63;96962.31;5018572;28;20551;-70
2023/09/18 08:53:36;;;;;;;3.87;1.33;;;;;;;23.62;56.64;96943.16;5032629;28;20791;-71
2023/09/18 08:56:04;;;;;;;1.90;1.30;;;;;;;23.61;56.24;96949.56;5016464;28;20426;-70
2023/09/18 08:58:39;;;;;;;2.00;1.13;;;;;;;23.67;56.80;96951.28;5030310;28;20427;-70
2023/09/18 09:01:06;;;;;;;3.10;1.10;;;;;;;23.65;56.74;96973.97;5023925;28;20449;-71
2023/09/18 09:03:31;;;;;;;4.43;1.30;;;;;;;23.60;56.84;96961.31;5033237;28;20453;-71
2023/09/18 09:06:00;;;;;;;2.03;1.23;;;;;;;23.55;57.13;96966.59;5027584;28;20449;-69
2023/09/18 09:08:27;;;;;;;4.73;1.00;;;;;;;23.67;57.50;96983.38;5032524;28;20192;-70
2023/09/18 09:10:54;;;;;;;1.67;1.13;;;;;;;23.63;57.84;96987.59;5012597;28;20573;-71
2023/09/18 09:13:25;;;;;;;5.53;1.00;;;;;;;23.60;57.95;96977.38;5037101;28;20561;-70
2023/09/18 09:15:53;;;;;;;3.37;1.27;;;;;;;23.51;58.74;96989.50;5035158;28;20199;-71
2023/09/18 09:18:19;;;;;;;2.03;1.20;;;;;;;23.56;58.93;96981.59;5036380;28;20437;-70
2023/09/18 09:20:57;;;;;;;2.83;1.20;;;;;;;23.51;59.51;96986.84;5041126;28;20433;-71
2023/09/18 09:23:23;;;;;;;2.50;1.00;;;;;;;23.60;59.51;96982.72;5023672;28;20218;-71
2023/09/18 09:25:48;;;;;;;2.80;1.37;;;;;;;23.66;59.51;96970.25;5033645;28;20425;-71
2023/09/18 09:28:14;;;;;;;10.63;2.13;;;;;;;23.65;59.24;96971.28;5030128;28;20219;-71
2023/09/18 09:30:39;;;;;;;4.23;1.40;;;;;;;23.62;59.76;96983.28;5039719;28;20215;-71
2023/09/18 09:33:06;;;;;;;2.30;1.20;;;;;;;23.51;59.69;96981.50;5040630;28;20256;-70
2023/09/18 09:35:36;;;;;;;3.70;1.27;;;;;;;23.59;59.60;96981.91;5009303;28;20219;-70
2023/09/18 09:38:08;;;;;;;3.40;1.20;;;;;;;23.57;60.17;96967.16;5032981;28;20433;-69
2023/09/18 09:40:35;;;;;;;7.17;1.73;;;;;;;23.46;59.31;96966.97;5028242;28;20454;-69
2023/09/18 09:43:01;;;;;;;5.33;1.30;;;;;;;23.56;60.06;96952.19;5029238;28;20898;-70
2023/09/18 09:45:30;;;;;;;5.63;1.50;;;;;;;23.49;60.05;96948.84;5024654;28;20462;-70
2023/09/18 09:47:57;;;;;;;2.40;1.40;;;;;;;23.53;60.54;96947.31;5035835;28;20191;-70
2023/09/18 09:50:25;;;;;;;4.63;1.40;;;;;;;23.49;60.50;96935.47;5033815;28;20496;-70
2023/09/18 09:52:54;;;;;;;3.77;1.47;;;;;;;23.51;60.38;96936.03;5031463;28;20438;-70
2023/09/18 09:55:24;;;;;;;4.10;1.30;;;;;;;23.55;60.27;96937.19;5040301;28;20483;-70
2023/09/18 09:58:00;;;;;;;3.13;2.20;;;;;;;23.67;60.84;96959.31;5031355;28;20430;-71
2023/09/18 10:00:43;;;;;;;5.13;1.53;;;;;;;23.78;61.13;96961.09;5014020;28;20445;-70
2023/09/18 10:03:10;;;;;;;6.20;2.57;;;;;;;23.88;61.19;96951.59;5035625;28;20576;-70
2023/09/18 10:05:37;;;;;;;4.20;1.90;;;;;;;23.97;61.45;96963.53;5001040;28;20504;-71
2023/09/18 10:08:12;;;;;;;5.67;1.40;;;;;;;23.97;61.51;96963.53;5033332;28;20518;-70
2023/09/18 10:11:01;;;;;;;5.67;1.30;;;;;;;23.99;60.84;96969.47;5039331;28;20464;-70
2023/09/18 10:13:31;;;;;;;3.93;1.30;;;;;;;23.99;60.66;96972.13;5022162;28;20473;-71
2023/09/18 10:16:00;;;;;;;5.53;1.50;;;;;;;24.02;61.11;96974.34;5013141;28;20446;-70
2023/09/18 10:18:38;;;;;;;3.50;1.50;;;;;;;24.00;60.90;96986.34;5041339;28;20795;-71
2023/09/18 10:21:16;;;;;;;4.73;2.10;;;;;;;23.99;60.38;97022.97;5047450;28;20437;-71
2023/09/18 10:24:19;;;;;;;5.30;1.60;;;;;;;23.90;60.09;97032.44;5022302;28;20540;-70
2023/09/18 10:26:58;;;;;;;2.43;1.30;;;;;;;23.88;60.48;97037.22;5031372;28;20444;-71
2023/09/18 10:29:24;;;;;;;1.77;1.20;;;;;;;23.77;59.70;97037.06;5036733;28;20945;-71
2023/09/18 10:31:50;;;;;;;2.60;1.30;;;;;;;23.85;59.68;97032.34;5047845;28;20850;-70
2023/09/18 10:34:17;;;;;;;5.87;3.03;;;;;;;23.90;60.04;97040.47;4998769;28;20485;-70
2023/09/18 10:36:44;;;;;;;6.47;1.30;;;;;;;23.80;60.40;97041.09;5035886;28;20458;-70
2023/09/18 10:39:11;;;;;;;4.33;1.40;;;;;;;23.69;60.42;97037.44;5015069;28;20954;-71
2023/09/18 10:41:38;;;;;;;1.77;1.60;;;;;;;23.66;60.37;97034.44;5033634;28;21168;-71
2023/09/18 10:44:04;;;;;;;3.13;1.90;;;;;;;23.47;61.68;97038.13;5016624;28;20450;-71
2023/09/18 10:46:29;;;;;;;4.03;1.50;;;;;;;23.31;61.56;97015.66;5023502;28;20448;-72
2023/09/18 10:48:55;;;;;;;3.30;1.87;;;;;;;23.42;61.40;97013.16;5034852;28;20419;-71
2023/09/18 10:51:21;;;;;;;4.17;1.70;;;;;;;23.39;61.39;97005.59;5024071;28;20594;-71
2023/09/18 10:53:48;;;;;;;4.23;1.30;;;;;;;23.35;61.43;97005.28;5021609;28;20207;-69
2023/09/18 10:56:17;;;;;;;3.37;2.60;;;;;;;23.38;61.46;96991.44;5014831;28;21046;-69
2023/09/18 10:58:43;;;;;;;1.77;1.50;;;;;;;23.25;61.61;96991.72;5037141;28;20802;-71
2023/09/18 11:01:11;;;;;;;3.57;1.73;;;;;;;23.37;61.45;96987.16;5014262;28;20426;-71
2023/09/18 11:03:37;;;;;;;5.53;1.67;;;;;;;23.39;61.18;96977.03;5030098;28;20458;-71
2023/09/18 11:06:05;;;;;;;5.80;2.50;;;;;;;23.36;61.37;96974.81;5032839;28;20422;-71
2023/09/18 11:08:35;;;;;;;6.13;2.60;;;;;;;23.40;61.27;96984.00;5029329;28;20431;-71
2023/09/18 11:11:11;;;;;;;5.77;1.83;;;;;;;23.42;61.14;96984.56;5017867;28;20498;-70
2023/09/18 11:13:39;;;;;;;8.33;1.67;;;;;;;23.33;61.30;96991.34;5019048;28;20464;-71
2023/09/18 11:16:26;;;;;;;5.93;1.80;;;;;;;23.37;61.44;96995.16;5031295;28;20429;-71
2023/09/18 11:18:57;;;;;;;5.60;1.70;;;;;;;23.33;61.25;97014.59;5023923;28;20525;-70
2023/09/18 11:21:25;;;;;;;3.83;1.53;;;;;;;23.31;61.64;97012.97;5031511;28;20426;-71
2023/09/18 11:24:21;;;;;;;2.70;1.43;;;;;;;23.34;61.12;97000.97;5039102;28;20536;-71
2023/09/18 11:26:49;;;;;;;2.80;1.67;;;;;;;23.38;61.23;96982.59;5028260;28;20996;-70
2023/09/18 11:29:18;;;;;;;4.30;1.60;;;;;;;23.39;61.32;96952.13;5040206;28;20491;-70
2023/09/18 11:31:50;;;;;;;4.70;1.83;;;;;;;23.42;60.73;96973.88;5031629;28;20472;-70